createdAt,value
2019-03-23T00:01:15.893Z,8.83
2019-03-23T00:03:49.558Z,8.83
2019-03-23T00:06:30.675Z,9.47
2019-03-23T00:08:58.678Z,9.40
2019-03-23T00:11:32.384Z,9.50
2019-03-23T00:14:06.100Z,10.00
2019-03-23T00:16:39.880Z,9.93
2019-03-23T00:19:13.545Z,10.33
2019-03-23T00:21:47.273Z,9.63
2019-03-23T00:24:21.262Z,8.87
2019-03-23T00:26:54.952Z,10.50
2019-03-23T00:29:28.628Z,9.17
2019-03-23T00:32:02.288Z,9.83
2019-03-23T00:34:35.924Z,9.70
2019-03-23T00:37:09.746Z,10.97
2019-03-23T00:39:43.378Z,10.43
2019-03-23T00:42:17.062Z,10.70
2019-03-23T00:44:50.871Z,12.03
2019-03-23T00:51:10.808Z,10.00
2019-03-23T00:53:44.481Z,10.93
2019-03-23T00:56:18.186Z,11.10
2019-03-23T00:58:51.888Z,11.03
2019-03-23T01:01:25.620Z,11.27
2019-03-23T01:07:45.323Z,10.67
2019-03-23T01:10:19.132Z,10.30
2019-03-23T01:12:53.512Z,11.47
2019-03-23T01:15:27.249Z,11.33
2019-03-23T01:18:00.928Z,12.63
2019-03-23T01:20:34.739Z,11.63
2019-03-23T01:23:08.452Z,12.60
2019-03-23T01:25:42.044Z,11.73
2019-03-23T01:28:15.972Z,12.30
2019-03-23T01:30:49.522Z,10.90
2019-03-23T01:33:23.341Z,11.13
2019-03-23T01:35:57.046Z,10.83
2019-03-23T01:38:30.718Z,10.93
2019-03-23T01:41:04.346Z,11.60
2019-03-23T01:43:38.089Z,11.07
2019-03-23T01:46:11.875Z,11.60
2019-03-23T01:48:46.507Z,14.27
2019-03-23T01:51:20.241Z,14.70
2019-03-23T01:53:54.140Z,13.57
2019-03-23T01:56:27.800Z,13.30
2019-03-23T01:59:01.529Z,12.23
2019-03-23T02:01:35.170Z,15.23
2019-03-23T02:04:09.054Z,15.40
2019-03-23T02:06:44.220Z,16.00
2019-03-23T02:09:17.836Z,17.83
2019-03-23T02:11:52.603Z,18.83
2019-03-23T02:14:26.304Z,16.83
2019-03-23T02:16:59.962Z,15.87
2019-03-23T02:19:33.607Z,15.43
2019-03-23T02:22:07.282Z,15.07
2019-03-23T02:24:41.088Z,15.70
2019-03-23T02:27:14.897Z,14.40
2019-03-23T02:29:48.559Z,14.63
2019-03-23T02:32:22.329Z,15.60
2019-03-23T02:34:57.372Z,16.70
2019-03-23T02:37:30.971Z,16.20
2019-03-23T02:40:06.981Z,17.70
2019-03-23T02:42:40.741Z,17.13
2019-03-23T02:45:14.752Z,16.80
2019-03-23T02:47:48.415Z,17.63
2019-03-23T02:50:24.814Z,17.97
2019-03-23T02:52:58.478Z,17.90
2019-03-23T02:55:33.640Z,16.97
2019-03-23T02:58:07.241Z,17.73
2019-03-23T03:00:40.903Z,18.60
2019-03-23T03:06:56.014Z,18.83
2019-03-23T03:09:29.763Z,17.57
2019-03-23T03:12:03.519Z,18.80
2019-03-23T03:14:37.131Z,17.93
2019-03-23T03:17:10.829Z,19.13
2019-03-23T03:23:30.236Z,17.20
2019-03-23T03:26:04.233Z,20.30
2019-03-23T03:28:38.148Z,20.53
2019-03-23T03:31:11.858Z,20.00
2019-03-23T03:33:45.540Z,20.63
2019-03-23T03:36:19.209Z,20.77
2019-03-23T03:38:52.883Z,19.20
2019-03-23T03:41:26.770Z,21.67
2019-03-23T03:44:00.557Z,21.60
2019-03-23T03:46:34.219Z,21.53
2019-03-23T03:49:12.805Z,22.03
2019-03-23T03:51:43.743Z,23.43
2019-03-23T03:54:17.438Z,22.13
2019-03-23T03:56:51.156Z,22.87
2019-03-23T03:59:27.036Z,21.33
2019-03-23T04:02:00.892Z,21.23
2019-03-23T04:04:34.566Z,22.30
2019-03-23T04:07:08.253Z,21.73
2019-03-23T04:09:41.941Z,21.37
2019-03-23T04:12:15.593Z,20.20
2019-03-23T04:14:49.258Z,22.03
2019-03-23T04:17:22.854Z,21.27
2019-03-23T04:19:56.553Z,19.43
2019-03-23T04:22:30.401Z,19.53
2019-03-23T04:25:06.601Z,19.60
2019-03-23T04:27:41.652Z,18.83
2019-03-23T04:30:16.011Z,20.70
2019-03-23T04:32:49.672Z,20.50
2019-03-23T04:35:23.514Z,19.77
2019-03-23T04:37:57.131Z,19.87
2019-03-23T04:40:31.077Z,20.47
2019-03-23T04:43:04.803Z,21.67
2019-03-23T04:45:38.609Z,20.43
2019-03-23T04:48:12.639Z,21.33
2019-03-23T04:50:46.378Z,22.37
2019-03-23T04:53:20.115Z,20.10
2019-03-23T04:55:53.750Z,22.83
2019-03-23T04:58:27.435Z,21.70
2019-03-23T05:01:01.143Z,22.47
2019-03-23T05:06:59.159Z,21.73
2019-03-23T05:09:33.191Z,23.07
2019-03-23T05:12:06.955Z,24.00
2019-03-23T05:14:40.766Z,25.17
2019-03-23T05:17:14.361Z,24.83
2019-03-23T05:23:25.251Z,24.40
2019-03-23T05:25:58.865Z,24.63
2019-03-23T05:28:32.480Z,26.07
2019-03-23T05:31:07.146Z,24.73
2019-03-23T05:33:40.964Z,26.33
2019-03-23T05:40:00.463Z,24.87
2019-03-23T05:42:34.122Z,25.33
2019-03-23T05:45:08.513Z,26.43
2019-03-23T05:47:42.266Z,25.27
2019-03-23T05:50:15.939Z,24.27
2019-03-23T05:52:51.673Z,23.30
2019-03-23T05:55:25.297Z,25.83
2019-03-23T05:57:59.607Z,26.10
2019-03-23T06:00:33.415Z,25.23
2019-03-23T06:03:07.124Z,24.37
2019-03-23T06:05:42.563Z,25.27
2019-03-23T06:08:16.269Z,25.40
2019-03-23T06:10:49.953Z,26.43
2019-03-23T06:13:23.763Z,25.27
2019-03-23T06:15:57.433Z,26.40
2019-03-23T06:18:31.061Z,26.23
2019-03-23T06:21:05.339Z,26.60
2019-03-23T06:23:39.126Z,25.10
2019-03-23T06:26:12.767Z,25.23
2019-03-23T06:28:46.445Z,26.33
2019-03-23T06:31:20.117Z,25.37
2019-03-23T06:33:53.724Z,27.27
2019-03-23T06:36:27.364Z,25.30
2019-03-23T06:39:05.447Z,26.40
2019-03-23T06:41:36.271Z,26.27
2019-03-23T06:44:09.937Z,27.10
2019-03-23T06:46:43.635Z,27.03
2019-03-23T06:53:03.404Z,25.20
2019-03-23T06:55:37.021Z,27.27
2019-03-23T06:58:10.765Z,25.20
2019-03-23T07:00:44.476Z,25.13
2019-03-23T07:03:18.135Z,24.13
2019-03-23T07:09:33.311Z,24.37
2019-03-23T07:12:07.171Z,24.50
2019-03-23T07:14:40.833Z,24.27
2019-03-23T07:17:15.663Z,24.10
2019-03-23T07:19:49.293Z,24.83
2019-03-23T07:22:22.952Z,25.13
2019-03-23T07:24:56.592Z,25.03
2019-03-23T07:27:30.307Z,25.07
2019-03-23T07:30:10.216Z,24.60
2019-03-23T07:32:44.127Z,22.57
2019-03-23T07:35:17.993Z,22.60
2019-03-23T07:37:51.724Z,21.97
2019-03-23T07:40:25.486Z,21.10
2019-03-23T07:42:59.234Z,23.90
2019-03-23T07:45:34.324Z,23.87
2019-03-23T07:48:08.094Z,24.47
2019-03-23T07:50:41.752Z,25.40
2019-03-23T07:53:15.325Z,25.67
2019-03-23T07:55:48.980Z,25.30
2019-03-23T07:58:22.988Z,26.90
2019-03-23T08:00:56.700Z,26.30
2019-03-23T08:03:30.361Z,26.20
2019-03-23T08:06:04.375Z,26.17
2019-03-23T08:08:38.577Z,28.30
2019-03-23T08:11:12.285Z,26.47
2019-03-23T08:13:45.948Z,27.50
2019-03-23T08:16:19.718Z,27.03
2019-03-23T08:18:54.999Z,27.47
2019-03-23T08:21:28.735Z,32.03
2019-03-23T08:24:02.364Z,28.57
2019-03-23T08:26:36.050Z,26.17
2019-03-23T08:29:09.870Z,26.87
2019-03-23T08:31:43.578Z,25.57
2019-03-23T08:34:17.270Z,26.40
2019-03-23T08:36:50.916Z,26.50
2019-03-23T08:39:24.554Z,24.37
2019-03-23T08:41:58.226Z,26.47
2019-03-23T08:44:31.906Z,25.17
2019-03-23T08:47:05.668Z,25.83
2019-03-23T08:49:39.416Z,24.80
2019-03-23T08:52:13.170Z,25.20
2019-03-23T08:54:50.281Z,26.40
2019-03-23T08:57:23.901Z,25.90
2019-03-23T08:59:57.662Z,26.13
2019-03-23T09:02:31.384Z,25.97
2019-03-23T09:08:37.774Z,25.50
2019-03-23T09:11:20.243Z,25.17
2019-03-23T09:13:46.857Z,24.83
2019-03-23T09:16:21.121Z,24.73
2019-03-23T09:18:54.820Z,24.90
2019-03-23T09:25:06.655Z,24.37
2019-03-23T09:27:40.428Z,24.90
2019-03-23T09:30:14.751Z,25.10
2019-03-23T09:32:48.540Z,24.67
2019-03-23T09:35:22.521Z,24.40
2019-03-23T09:37:56.167Z,24.47
2019-03-23T09:40:29.886Z,25.50
2019-03-23T09:43:03.574Z,24.60
2019-03-23T09:45:37.487Z,24.90
2019-03-23T09:48:11.290Z,25.10
2019-03-23T09:50:45.103Z,26.17
2019-03-23T09:53:18.854Z,26.97
2019-03-23T09:55:52.820Z,26.17
2019-03-23T09:58:26.500Z,24.63
2019-03-23T10:01:00.371Z,24.53
2019-03-23T10:03:34.062Z,25.37
2019-03-23T10:06:07.736Z,24.73
2019-03-23T10:08:41.382Z,24.20
2019-03-23T10:11:15.068Z,24.73
2019-03-23T10:13:48.738Z,21.87
2019-03-23T10:16:22.528Z,23.53
2019-03-23T10:18:56.287Z,22.67
2019-03-23T10:21:30.148Z,22.20
2019-03-23T10:24:03.863Z,21.93
2019-03-23T10:26:37.463Z,22.30
2019-03-23T10:29:11.149Z,20.83
2019-03-23T10:31:44.828Z,19.80
2019-03-23T10:34:18.485Z,19.60
2019-03-23T10:36:52.124Z,19.67
2019-03-23T10:39:25.835Z,17.70
2019-03-23T10:41:59.794Z,19.17
2019-03-23T10:44:33.942Z,19.87
2019-03-23T10:47:07.619Z,20.33
2019-03-23T10:49:41.263Z,19.90
2019-03-23T10:52:14.930Z,17.90
2019-03-23T10:54:48.575Z,17.67
2019-03-23T10:57:22.323Z,17.00
2019-03-23T10:59:55.935Z,18.10
2019-03-23T11:02:30.019Z,18.93
2019-03-23T11:05:05.518Z,19.67
2019-03-23T11:07:39.438Z,19.60
2019-03-23T11:10:14.002Z,17.63
2019-03-23T11:12:47.738Z,19.37
2019-03-23T11:15:21.370Z,20.73
2019-03-23T11:17:57.848Z,20.30
2019-03-23T11:20:31.551Z,21.80
2019-03-23T11:23:05.253Z,22.17
2019-03-23T11:25:38.971Z,21.60
2019-03-23T11:28:12.794Z,20.10
2019-03-23T11:30:46.423Z,20.30
2019-03-23T11:33:20.166Z,20.73
2019-03-23T11:39:39.961Z,19.37
2019-03-23T11:42:13.639Z,21.33
2019-03-23T11:44:48.356Z,21.10
2019-03-23T11:47:22.155Z,21.80
2019-03-23T11:49:57.311Z,21.67
2019-03-23T11:56:08.350Z,20.93
2019-03-23T11:58:42.027Z,23.77
2019-03-23T12:01:15.853Z,24.43
2019-03-23T12:03:49.455Z,23.80
2019-03-23T12:06:23.111Z,23.77
2019-03-23T12:08:56.837Z,23.93
2019-03-23T12:11:30.684Z,24.13
2019-03-23T12:14:04.883Z,23.40
2019-03-23T12:16:38.579Z,24.93
2019-03-23T12:19:12.292Z,24.37
2019-03-23T12:21:45.975Z,24.77
2019-03-23T12:24:19.864Z,24.57
2019-03-23T12:26:53.582Z,25.53
2019-03-23T12:29:27.372Z,26.07
2019-03-23T12:32:01.691Z,25.40
2019-03-23T12:34:35.333Z,25.27
2019-03-23T12:37:09.038Z,23.87
2019-03-23T12:39:43.727Z,25.33
2019-03-23T12:42:17.382Z,25.53
2019-03-23T12:44:51.025Z,26.87
2019-03-23T12:47:24.628Z,25.87
2019-03-23T12:49:58.535Z,26.83
2019-03-23T12:52:32.201Z,27.27
2019-03-23T12:55:07.855Z,22.97
2019-03-23T12:57:41.519Z,26.83
2019-03-23T13:00:16.450Z,26.87
2019-03-23T13:02:50.080Z,27.17
2019-03-23T13:05:23.782Z,26.47
2019-03-23T13:07:57.471Z,25.67
2019-03-23T13:10:31.329Z,26.93
2019-03-23T13:13:05.133Z,25.67
2019-03-23T13:15:38.793Z,24.73
2019-03-23T13:18:12.355Z,25.43
2019-03-23T13:20:46.683Z,25.67
2019-03-23T13:23:20.337Z,24.93
2019-03-23T13:25:54.111Z,24.03
2019-03-23T13:28:27.731Z,24.17
2019-03-23T13:31:01.364Z,23.57
2019-03-23T13:33:35.161Z,22.87
2019-03-23T13:36:11.901Z,23.87
2019-03-23T13:38:45.599Z,22.20
2019-03-23T13:41:19.531Z,23.07
2019-03-23T13:43:53.294Z,22.20
2019-03-23T13:46:27.057Z,23.33
2019-03-23T13:49:00.791Z,21.03
2019-03-23T13:55:32.464Z,23.03
2019-03-23T13:58:09.503Z,23.90
2019-03-23T14:00:45.762Z,23.20
2019-03-23T14:03:19.721Z,26.57
2019-03-23T14:05:53.483Z,27.17
2019-03-23T14:12:13.397Z,29.40
2019-03-23T14:14:47.075Z,45.27
2019-03-23T14:17:20.844Z,48.73
2019-03-23T14:19:54.453Z,53.73
2019-03-23T14:22:29.623Z,51.47
2019-03-23T14:25:04.363Z,51.47
2019-03-23T14:27:38.072Z,51.13
2019-03-23T14:30:11.977Z,49.83
2019-03-23T14:32:45.556Z,50.50
2019-03-23T14:35:19.262Z,51.13
2019-03-23T14:37:52.861Z,53.80
2019-03-23T14:40:28.133Z,50.33
2019-03-23T14:43:01.789Z,49.87
2019-03-23T14:45:37.017Z,50.60
2019-03-23T14:48:10.885Z,50.13
2019-03-23T14:50:44.703Z,51.43
2019-03-23T14:53:18.497Z,50.70
2019-03-23T14:55:52.197Z,53.50
2019-03-23T14:58:25.803Z,51.97
2019-03-23T15:00:59.450Z,52.00
2019-03-23T15:03:33.177Z,49.33
2019-03-23T15:06:08.039Z,56.45
2019-03-23T15:08:41.839Z,61.13
2019-03-23T15:11:15.654Z,51.50
2019-03-23T15:13:49.265Z,48.23
2019-03-23T15:16:22.951Z,49.77
2019-03-23T15:18:56.705Z,47.67
2019-03-23T15:21:30.459Z,46.67
2019-03-23T15:24:04.477Z,43.53
2019-03-23T15:26:38.274Z,39.70
2019-03-23T15:29:11.951Z,36.53
2019-03-23T15:31:45.511Z,38.23
2019-03-23T15:34:21.545Z,37.60
2019-03-23T15:36:55.279Z,33.37
2019-03-23T15:39:28.945Z,29.63
2019-03-23T15:42:02.805Z,26.83
2019-03-23T15:44:36.598Z,25.60
2019-03-23T15:47:10.236Z,26.70
2019-03-23T15:49:45.508Z,26.43
2019-03-23T15:55:19.851Z,25.53
2019-03-23T15:57:53.519Z,19.40
2019-03-23T16:00:27.275Z,19.07
2019-03-23T16:03:00.900Z,19.83
2019-03-23T16:05:34.617Z,21.40
2019-03-23T16:11:54.163Z,23.83
2019-03-23T16:14:27.851Z,25.43
2019-03-23T16:17:01.518Z,25.37
2019-03-23T16:19:35.196Z,23.13
2019-03-23T16:22:08.919Z,20.43
2019-03-23T16:28:28.729Z,22.90
2019-03-23T16:31:02.429Z,24.73
2019-03-23T16:33:36.053Z,22.23
2019-03-23T16:36:09.794Z,22.90
2019-03-23T16:38:43.427Z,25.93
2019-03-23T16:41:17.086Z,25.00
2019-03-23T16:43:52.358Z,24.30
2019-03-23T16:46:26.014Z,23.33
2019-03-23T16:49:00.467Z,21.67
2019-03-23T16:51:34.272Z,20.67
2019-03-23T16:54:07.976Z,21.67
2019-03-23T16:56:41.640Z,21.10
2019-03-23T16:59:15.810Z,22.07
2019-03-23T17:01:49.642Z,21.10
2019-03-23T17:04:23.444Z,22.47
2019-03-23T17:06:58.572Z,23.23
2019-03-23T17:09:32.266Z,22.03
2019-03-23T17:12:06.035Z,24.43
2019-03-23T17:14:40.048Z,24.50
2019-03-23T17:17:13.686Z,25.10
2019-03-23T17:19:47.383Z,26.47
2019-03-23T17:22:21.079Z,26.57
2019-03-23T17:24:55.381Z,27.07
2019-03-23T17:27:29.208Z,26.20
2019-03-23T17:30:02.983Z,26.80
2019-03-23T17:32:39.230Z,22.17
2019-03-23T17:35:13.004Z,21.93
2019-03-23T17:37:46.600Z,24.67
2019-03-23T17:40:20.318Z,25.33
2019-03-23T17:42:53.966Z,23.73
2019-03-23T17:45:27.634Z,27.07
2019-03-23T17:48:01.234Z,27.30
2019-03-23T17:50:35.317Z,27.67
2019-03-23T17:53:08.944Z,27.67
2019-03-23T17:55:42.727Z,27.80
2019-03-23T17:58:16.376Z,27.50
2019-03-23T18:00:50.159Z,25.47
2019-03-23T18:03:26.357Z,25.10
2019-03-23T18:06:00.604Z,25.17
2019-03-23T18:12:20.296Z,22.67
2019-03-23T18:14:54.000Z,22.63
2019-03-23T18:17:27.852Z,20.77
2019-03-23T18:20:01.559Z,20.60
2019-03-23T18:22:35.418Z,19.30
2019-03-23T18:28:58.670Z,21.73
2019-03-23T18:31:32.699Z,20.50
2019-03-23T18:34:06.535Z,20.97
2019-03-23T18:36:41.296Z,19.30
2019-03-23T18:39:15.690Z,20.13
2019-03-23T18:41:49.315Z,20.77
2019-03-23T18:44:23.090Z,20.27
2019-03-23T18:46:56.730Z,20.37
2019-03-23T18:49:30.512Z,20.37
2019-03-23T18:52:04.293Z,19.27
2019-03-23T18:54:38.040Z,20.97
2019-03-23T18:57:11.658Z,20.87
2019-03-23T18:59:45.348Z,20.30
2019-03-23T19:02:19.029Z,22.07
2019-03-23T19:04:52.756Z,22.13
2019-03-23T19:07:26.359Z,21.77
2019-03-23T19:10:00.066Z,20.93
2019-03-23T19:12:33.748Z,20.53
2019-03-23T19:15:07.713Z,20.93
2019-03-23T19:17:41.453Z,22.93
2019-03-23T19:20:15.104Z,23.20
2019-03-23T19:22:48.825Z,22.53
2019-03-23T19:25:22.492Z,22.83
2019-03-23T19:27:56.226Z,28.47
2019-03-23T19:30:29.896Z,22.53
2019-03-23T19:33:03.647Z,21.70
2019-03-23T19:35:37.364Z,20.53
2019-03-23T19:38:11.068Z,19.87
2019-03-23T19:40:44.736Z,19.77
2019-03-23T19:43:21.449Z,19.27
2019-03-23T19:45:55.134Z,18.67
2019-03-23T19:48:29.115Z,18.00
2019-03-23T19:51:03.822Z,18.60
2019-03-23T19:53:37.675Z,18.33
2019-03-23T19:56:11.350Z,18.53
2019-03-23T19:58:45.088Z,17.23
2019-03-23T20:01:18.907Z,17.97
2019-03-23T20:03:52.528Z,16.53
2019-03-23T20:06:26.525Z,17.13
2019-03-23T20:09:00.211Z,17.10
2019-03-23T20:11:34.343Z,17.47
2019-03-23T20:14:08.560Z,16.77
2019-03-23T20:16:42.445Z,15.60
2019-03-23T20:19:16.004Z,14.47
2019-03-23T20:21:49.817Z,15.33
2019-03-23T20:28:09.944Z,13.73
2019-03-23T20:30:43.693Z,14.27
2019-03-23T20:33:19.546Z,12.13
2019-03-23T20:35:52.808Z,13.17
2019-03-23T20:38:26.409Z,13.43
2019-03-23T20:44:37.508Z,10.87
2019-03-23T20:47:11.850Z,11.00
2019-03-23T20:49:45.968Z,10.83
2019-03-23T20:52:19.750Z,10.33
2019-03-23T20:54:53.524Z,10.43
2019-03-23T20:57:36.897Z,9.73
2019-03-23T21:00:02.581Z,9.30
2019-03-23T21:02:36.508Z,8.80
2019-03-23T21:05:11.545Z,10.13
2019-03-23T21:07:46.820Z,9.43
2019-03-23T21:10:20.631Z,10.90
2019-03-23T21:12:54.344Z,10.20
2019-03-23T21:15:28.112Z,10.43
2019-03-23T21:18:01.698Z,9.13
2019-03-23T21:20:35.433Z,8.37
2019-03-23T21:23:09.137Z,8.53
2019-03-23T21:25:42.786Z,7.10
2019-03-23T21:28:16.650Z,7.80
2019-03-23T21:30:50.338Z,5.77
2019-03-23T21:33:24.105Z,6.70
2019-03-23T21:35:57.709Z,5.93
2019-03-23T21:38:31.583Z,6.33
2019-03-23T21:41:05.248Z,5.83
2019-03-23T21:43:38.872Z,5.67
2019-03-23T21:46:12.587Z,6.23
2019-03-23T21:48:46.266Z,6.10
2019-03-23T21:51:19.856Z,6.23
2019-03-23T21:53:53.482Z,6.10
2019-03-23T21:56:29.002Z,5.40
2019-03-23T21:59:02.698Z,5.37
2019-03-23T22:01:36.352Z,5.87
2019-03-23T22:04:10.073Z,4.90
2019-03-23T22:06:43.732Z,5.67
2019-03-23T22:09:17.475Z,5.10
2019-03-23T22:11:51.357Z,6.50
2019-03-23T22:14:25.008Z,4.80
2019-03-23T22:16:58.673Z,5.30
2019-03-23T22:19:32.349Z,4.27
2019-03-23T22:22:05.995Z,5.00
2019-03-23T22:24:39.719Z,5.13
2019-03-23T22:27:13.387Z,4.60
2019-03-23T22:29:47.091Z,5.27
2019-03-23T22:32:20.899Z,5.27
2019-03-23T22:34:54.727Z,4.77
2019-03-23T22:37:29.608Z,5.93
2019-03-23T22:43:49.380Z,4.67
2019-03-23T22:46:23.013Z,4.87
2019-03-23T22:48:56.667Z,5.07
2019-03-23T22:51:30.467Z,5.23
2019-03-23T22:54:04.298Z,5.30
2019-03-23T23:00:19.920Z,4.90
2019-03-23T23:02:53.501Z,5.23
2019-03-23T23:05:27.186Z,4.03
2019-03-23T23:08:02.345Z,4.70
2019-03-23T23:10:36.025Z,4.47
2019-03-23T23:13:09.840Z,4.53
2019-03-23T23:15:43.582Z,5.13
2019-03-23T23:18:17.223Z,5.13
2019-03-23T23:20:50.813Z,5.00
2019-03-23T23:23:24.504Z,6.77
2019-03-23T23:25:59.621Z,6.00
2019-03-23T23:28:33.339Z,5.20
2019-03-23T23:31:07.762Z,5.57
2019-03-23T23:33:41.417Z,6.23
2019-03-23T23:36:15.003Z,5.43
2019-03-23T23:38:48.661Z,6.30
2019-03-23T23:41:22.409Z,5.97
2019-03-23T23:43:56.056Z,5.50
2019-03-23T23:46:29.763Z,5.37
2019-03-23T23:49:03.487Z,5.80
2019-03-23T23:51:37.174Z,5.40
2019-03-23T23:54:10.901Z,6.13
2019-03-23T23:56:44.525Z,5.90
2019-03-23T23:59:18.263Z,5.77
